createdAt,value
2022-10-10T00:00:23.511Z,8.83
2022-10-10T00:01:23.654Z,8.79
2022-10-10T00:02:23.504Z,8.81
2022-10-10T00:03:23.479Z,8.81
2022-10-10T00:04:23.605Z,8.79
2022-10-10T00:05:23.473Z,8.78
2022-10-10T00:06:23.455Z,8.78
2022-10-10T00:07:23.445Z,8.76
2022-10-10T00:08:24.443Z,8.75
2022-10-10T00:09:23.466Z,8.75
2022-10-10T00:10:23.403Z,8.73
2022-10-10T00:11:24.408Z,8.75
2022-10-10T00:12:23.398Z,8.72
2022-10-10T00:13:24.357Z,8.75
2022-10-10T00:14:24.353Z,8.76
2022-10-10T00:15:23.341Z,8.75
2022-10-10T00:16:24.347Z,8.75
2022-10-10T00:17:23.313Z,8.76
2022-10-10T00:18:23.310Z,8.75
2022-10-10T00:19:24.286Z,8.75
2022-10-10T00:20:23.285Z,8.73
2022-10-10T00:21:24.236Z,8.73
2022-10-10T00:22:23.243Z,8.71
2022-10-10T00:23:23.277Z,8.69
2022-10-10T00:24:24.242Z,8.69
2022-10-10T00:25:23.215Z,8.68
2022-10-10T00:26:23.187Z,8.66
2022-10-10T00:27:23.239Z,8.66
2022-10-10T00:28:30.724Z,8.65
2022-10-10T00:29:23.218Z,8.65
2022-10-10T00:30:23.147Z,8.62
2022-10-10T00:31:23.176Z,8.63
2022-10-10T00:32:23.180Z,8.63
2022-10-10T00:33:23.146Z,8.60
2022-10-10T00:34:23.147Z,8.62
2022-10-10T00:35:23.096Z,8.60
2022-10-10T00:36:23.089Z,8.58
2022-10-10T00:37:23.086Z,8.58
2022-10-10T00:38:23.044Z,8.58
2022-10-10T00:39:23.022Z,8.57
2022-10-10T00:40:23.106Z,8.55
2022-10-10T00:41:22.997Z,8.54
2022-10-10T00:42:22.978Z,8.53
2022-10-10T00:43:23.008Z,8.53
2022-10-10T00:44:22.959Z,8.50
2022-10-10T00:45:22.964Z,8.47
2022-10-10T00:46:22.928Z,8.44
2022-10-10T00:47:22.941Z,8.40
2022-10-10T00:48:22.935Z,8.37
2022-10-10T00:49:22.892Z,8.36
2022-10-10T00:50:23.501Z,8.33
2022-10-10T00:51:22.899Z,8.32
2022-10-10T00:52:22.871Z,8.29
2022-10-10T00:53:22.860Z,8.30
2022-10-10T00:54:22.828Z,8.32
2022-10-10T00:55:22.866Z,8.29
2022-10-10T00:56:22.852Z,8.29
2022-10-10T00:57:22.810Z,8.30
2022-10-10T00:58:22.788Z,8.32
2022-10-10T00:59:22.778Z,8.35
2022-10-10T01:00:22.772Z,8.39
2022-10-10T01:01:22.856Z,8.40
2022-10-10T01:02:22.740Z,8.40
2022-10-10T01:03:22.719Z,8.44
2022-10-10T01:04:22.732Z,8.45
2022-10-10T01:05:22.748Z,8.45
2022-10-10T01:06:22.686Z,8.47
2022-10-10T01:07:22.659Z,8.47
2022-10-10T01:08:22.655Z,8.45
2022-10-10T01:09:22.637Z,8.44
2022-10-10T01:10:22.675Z,8.45
2022-10-10T01:11:22.600Z,8.47
2022-10-10T01:12:22.600Z,8.48
2022-10-10T01:13:22.571Z,8.51
2022-10-10T01:14:22.629Z,8.51
2022-10-10T01:15:22.583Z,8.51
2022-10-10T01:16:22.573Z,8.54
2022-10-10T01:17:22.530Z,8.57
2022-10-10T01:18:22.552Z,8.58
2022-10-10T01:19:22.541Z,8.60
2022-10-10T01:20:22.520Z,8.62
2022-10-10T01:21:22.496Z,8.62
2022-10-10T01:22:22.502Z,8.60
2022-10-10T01:23:22.468Z,8.60
2022-10-10T01:24:22.452Z,8.55
2022-10-10T01:25:22.477Z,8.55
2022-10-10T01:26:22.443Z,8.57
2022-10-10T01:27:23.290Z,8.58
2022-10-10T01:28:22.446Z,8.60
2022-10-10T01:29:22.374Z,8.60
2022-10-10T01:30:22.396Z,8.62
2022-10-10T01:31:22.382Z,8.62
2022-10-10T01:32:22.343Z,8.62
2022-10-10T01:33:22.350Z,8.65
2022-10-10T01:34:22.313Z,8.68
2022-10-10T01:35:22.330Z,8.66
2022-10-10T01:36:22.328Z,8.66
2022-10-10T01:37:22.290Z,8.65
2022-10-10T01:38:22.275Z,8.63
2022-10-10T01:39:22.249Z,8.63
2022-10-10T01:40:22.296Z,8.66
2022-10-10T01:41:22.246Z,8.68
2022-10-10T01:42:22.223Z,8.66
2022-10-10T01:43:22.206Z,8.66
2022-10-10T01:44:22.215Z,8.68
2022-10-10T01:45:22.235Z,8.68
2022-10-10T01:46:22.179Z,8.66
2022-10-10T01:47:22.189Z,8.66
2022-10-10T01:48:22.206Z,8.66
2022-10-10T01:49:22.147Z,8.65
2022-10-10T01:50:22.146Z,8.66
2022-10-10T01:51:22.150Z,8.68
2022-10-10T01:52:22.077Z,8.65
2022-10-10T01:53:22.067Z,8.65
2022-10-10T01:54:22.096Z,8.65
2022-10-10T01:55:22.089Z,8.65
2022-10-10T01:56:22.072Z,8.63
2022-10-10T01:57:22.027Z,8.58
2022-10-10T01:58:22.026Z,8.57
2022-10-10T01:59:22.011Z,8.55
2022-10-10T02:00:22.129Z,8.54
2022-10-10T02:01:22.031Z,8.54
2022-10-10T02:02:21.987Z,8.50
2022-10-10T02:03:21.958Z,8.48
2022-10-10T02:04:22.938Z,8.48
2022-10-10T02:05:21.946Z,8.47
2022-10-10T02:06:21.909Z,8.45
2022-10-10T02:07:21.897Z,8.44
2022-10-10T02:08:29.800Z,8.40
2022-10-10T02:09:23.726Z,8.36
2022-10-10T02:10:29.971Z,8.32
2022-10-10T02:11:21.891Z,8.29
2022-10-10T02:12:21.817Z,8.30
2022-10-10T02:13:21.809Z,8.29
2022-10-10T02:14:21.798Z,8.29
2022-10-10T02:15:21.800Z,8.29
2022-10-10T02:16:21.779Z,8.29
2022-10-10T02:17:21.760Z,8.29
2022-10-10T02:18:21.737Z,8.29
2022-10-10T02:19:21.728Z,8.28
2022-10-10T02:20:21.729Z,8.28
2022-10-10T02:21:21.733Z,8.28
2022-10-10T02:22:21.698Z,8.28
2022-10-10T02:23:21.680Z,8.26
2022-10-10T02:24:21.659Z,8.26
2022-10-10T02:25:21.689Z,8.22
2022-10-10T02:26:21.650Z,8.21
2022-10-10T02:27:21.656Z,8.21
2022-10-10T02:28:21.661Z,8.18
2022-10-10T02:29:21.603Z,8.18
2022-10-10T02:30:21.592Z,8.15
2022-10-10T02:31:21.581Z,8.10
2022-10-10T02:32:21.550Z,8.07
2022-10-10T02:33:21.540Z,8.04
2022-10-10T02:34:21.529Z,8.03
2022-10-10T02:35:21.530Z,8.02
2022-10-10T02:36:21.510Z,8.02
2022-10-10T02:37:21.513Z,8.00
2022-10-10T02:38:21.481Z,7.99
2022-10-10T02:39:21.480Z,7.96
2022-10-10T02:40:21.458Z,7.94
2022-10-10T02:41:21.451Z,7.90
2022-10-10T02:42:21.420Z,7.90
2022-10-10T02:43:21.435Z,7.87
2022-10-10T02:44:21.401Z,7.84
2022-10-10T02:45:21.403Z,7.81
2022-10-10T02:46:21.382Z,7.79
2022-10-10T02:47:21.372Z,7.78
2022-10-10T02:48:21.350Z,7.78
2022-10-10T02:49:21.332Z,7.77
2022-10-10T02:50:21.341Z,7.77
2022-10-10T02:51:21.314Z,7.72
2022-10-10T02:52:21.322Z,7.74
2022-10-10T02:53:21.280Z,7.74
2022-10-10T02:54:21.290Z,7.72
2022-10-10T02:55:21.284Z,7.71
2022-10-10T02:56:21.252Z,7.71
2022-10-10T02:57:21.262Z,7.67
2022-10-10T02:58:21.221Z,7.69
2022-10-10T02:59:21.220Z,7.69
2022-10-10T03:00:21.212Z,7.67
2022-10-10T03:01:21.232Z,7.67
2022-10-10T03:02:21.192Z,7.71
2022-10-10T03:03:21.162Z,7.71
2022-10-10T03:04:21.141Z,7.72
2022-10-10T03:05:21.146Z,7.71
2022-10-10T03:06:21.121Z,7.69
2022-10-10T03:07:21.121Z,7.71
2022-10-10T03:08:21.083Z,7.71
2022-10-10T03:09:21.075Z,7.72
2022-10-10T03:10:21.073Z,7.71
2022-10-10T03:11:21.056Z,7.71
2022-10-10T03:12:21.054Z,7.67
2022-10-10T03:13:21.014Z,7.63
2022-10-10T03:14:21.006Z,7.63
2022-10-10T03:15:21.003Z,7.62
2022-10-10T03:16:20.985Z,7.58
2022-10-10T03:17:21.201Z,7.58
2022-10-10T03:18:20.955Z,7.59
2022-10-10T03:19:20.945Z,7.60
2022-10-10T03:20:20.950Z,7.62
2022-10-10T03:21:20.934Z,7.66
2022-10-10T03:22:20.916Z,7.67
2022-10-10T03:23:20.890Z,7.63
2022-10-10T03:24:20.901Z,7.66
2022-10-10T03:25:20.906Z,7.62
2022-10-10T03:26:20.871Z,7.62
2022-10-10T03:27:20.842Z,7.63
2022-10-10T03:28:20.896Z,7.63
2022-10-10T03:29:20.817Z,7.63
2022-10-10T03:30:20.817Z,7.63
2022-10-10T03:31:20.798Z,7.66
2022-10-10T03:32:20.786Z,7.63
2022-10-10T03:33:20.767Z,7.63
2022-10-10T03:34:20.758Z,7.60
2022-10-10T03:35:20.756Z,7.59
2022-10-10T03:36:20.737Z,7.59
2022-10-10T03:37:20.718Z,7.59
2022-10-10T03:38:20.708Z,7.55
2022-10-10T03:39:20.738Z,7.55
2022-10-10T03:40:20.686Z,7.52
2022-10-10T03:41:20.702Z,7.55
2022-10-10T03:42:20.666Z,7.59
2022-10-10T03:43:20.648Z,7.62
2022-10-10T03:44:20.618Z,7.62
2022-10-10T03:45:20.627Z,7.63
2022-10-10T03:46:20.606Z,7.66
2022-10-10T03:47:20.579Z,7.72
2022-10-10T03:48:20.585Z,7.77
2022-10-10T03:49:20.550Z,7.84
2022-10-10T04:02:57.677Z,7.69
2022-10-10T04:03:57.659Z,7.71
2022-10-10T04:04:57.665Z,7.63
2022-10-10T04:05:57.629Z,7.63
2022-10-10T04:06:57.611Z,7.63
2022-10-10T04:07:57.599Z,7.67
2022-10-10T04:08:57.589Z,7.69
2022-10-10T04:09:57.589Z,7.67
2022-10-10T04:10:57.571Z,7.66
2022-10-10T04:11:57.538Z,7.69
2022-10-10T04:12:57.549Z,7.69
2022-10-10T04:13:57.529Z,7.69
2022-10-10T04:14:57.520Z,7.71
2022-10-10T04:15:57.498Z,7.74
2022-10-10T04:17:00.961Z,7.75
2022-10-10T04:17:58.475Z,7.75
2022-10-10T04:18:57.460Z,7.69
2022-10-10T04:19:57.460Z,7.69
2022-10-10T04:20:57.441Z,7.69
2022-10-10T04:21:57.422Z,7.69
2022-10-10T04:22:57.422Z,7.71
2022-10-10T04:23:57.392Z,7.71
2022-10-10T04:24:57.393Z,7.72
2022-10-10T04:25:57.383Z,7.72
2022-10-10T04:26:57.361Z,7.75
2022-10-10T04:28:01.061Z,7.77
2022-10-10T04:28:57.332Z,7.78
2022-10-10T04:29:57.332Z,7.79
2022-10-10T04:30:57.312Z,7.81
2022-10-10T04:31:57.293Z,7.77
2022-10-10T04:32:57.271Z,7.75
2022-10-10T04:33:57.265Z,7.74
2022-10-10T04:34:57.271Z,7.75
2022-10-10T04:35:57.232Z,7.74
2022-10-10T04:36:57.226Z,7.75
2022-10-10T04:37:57.204Z,7.74
2022-10-10T04:38:57.204Z,7.79
2022-10-10T04:39:57.203Z,7.85
2022-10-10T04:40:57.182Z,7.89
2022-10-10T04:41:57.146Z,7.89
2022-10-10T04:42:57.155Z,7.96
2022-10-10T04:43:57.143Z,7.99
2022-10-10T04:44:57.137Z,8.00
2022-10-10T04:45:57.105Z,7.97
2022-10-10T04:46:57.107Z,7.96
2022-10-10T04:47:57.073Z,7.93
2022-10-10T04:48:57.073Z,7.93
2022-10-10T04:49:57.055Z,7.93
2022-10-10T04:50:57.056Z,7.93
2022-10-10T04:51:57.037Z,7.89
2022-10-10T04:52:57.015Z,7.90
2022-10-10T04:53:56.996Z,7.92
2022-10-10T04:54:56.994Z,7.93
2022-10-10T04:55:56.965Z,7.97
2022-10-10T04:56:56.979Z,8.00
2022-10-10T04:57:56.954Z,8.03
2022-10-10T04:58:56.936Z,8.03
2022-10-10T04:59:56.935Z,8.03
2022-10-10T05:00:56.937Z,8.02
2022-10-10T05:02:01.342Z,7.99
2022-10-10T05:02:56.876Z,7.94
2022-10-10T05:03:56.875Z,7.92
2022-10-10T05:04:56.866Z,7.90
2022-10-10T05:05:56.846Z,7.93
2022-10-10T05:06:56.838Z,7.99
2022-10-10T05:07:56.827Z,8.04
2022-10-10T05:08:56.806Z,8.02
2022-10-10T05:09:56.806Z,8.00
2022-10-10T05:10:56.800Z,8.00
2022-10-10T05:11:56.768Z,7.97
2022-10-10T05:12:56.751Z,7.99
2022-10-10T05:13:56.748Z,8.00
2022-10-10T05:14:56.730Z,8.02
2022-10-10T05:15:56.728Z,7.99
2022-10-10T05:16:56.721Z,7.93
2022-10-10T05:17:56.707Z,7.93
2022-10-10T05:18:56.668Z,7.93
2022-10-10T05:19:56.667Z,7.90
2022-10-10T05:21:01.058Z,7.89
2022-10-10T05:21:57.638Z,7.92
2022-10-10T05:22:56.620Z,7.92
2022-10-10T05:23:56.699Z,7.92
2022-10-10T05:24:56.598Z,7.90
2022-10-10T05:25:56.589Z,7.85
2022-10-10T05:26:56.569Z,7.85
2022-10-10T05:27:56.571Z,7.84
2022-10-10T05:28:56.541Z,7.84
2022-10-10T05:29:56.543Z,7.85
2022-10-10T05:30:56.519Z,7.85
2022-10-10T05:31:56.510Z,7.82
2022-10-10T05:32:56.499Z,7.82
2022-10-10T05:33:56.479Z,7.87
2022-10-10T05:34:56.468Z,7.90
2022-10-10T05:35:56.457Z,7.94
2022-10-10T05:36:56.451Z,7.96
2022-10-10T05:37:56.431Z,7.94
2022-10-10T05:38:56.411Z,7.93
2022-10-10T05:39:56.404Z,7.94
2022-10-10T05:40:56.379Z,7.93
2022-10-10T05:41:56.372Z,7.96
2022-10-10T05:42:56.360Z,7.97
2022-10-10T05:43:56.341Z,8.03
2022-10-10T05:44:56.331Z,8.12
2022-10-10T05:45:56.321Z,8.20
2022-10-10T05:46:56.299Z,8.22
2022-10-10T05:47:56.311Z,8.22
2022-10-10T05:48:56.271Z,8.22
2022-10-10T05:49:56.284Z,8.26
2022-10-10T05:50:56.272Z,8.30
2022-10-10T05:51:56.264Z,8.36
2022-10-10T05:52:56.225Z,8.37
2022-10-10T05:53:56.221Z,8.39
2022-10-10T05:54:56.213Z,8.39
2022-10-10T05:55:56.193Z,8.44
2022-10-10T05:56:56.181Z,8.44
2022-10-10T05:57:56.176Z,8.42
2022-10-10T05:58:56.143Z,8.42
2022-10-10T05:59:56.146Z,8.42
2022-10-10T06:00:56.123Z,8.42
2022-10-10T06:01:56.113Z,8.42
2022-10-10T06:02:56.265Z,8.40
2022-10-10T06:03:56.182Z,8.42
2022-10-10T06:04:56.073Z,8.39
2022-10-10T06:05:56.055Z,8.39
2022-10-10T06:06:56.043Z,8.37
2022-10-10T06:08:12.296Z,8.37
2022-10-10T06:08:57.009Z,8.36
2022-10-10T06:09:56.015Z,8.40
2022-10-10T06:10:55.986Z,8.42
2022-10-10T06:11:55.993Z,8.42
2022-10-10T06:12:55.965Z,8.40
2022-10-10T06:13:55.968Z,8.37
2022-10-10T06:14:55.946Z,8.37
2022-10-10T06:15:55.944Z,8.37
2022-10-10T06:16:55.936Z,8.37
2022-10-10T06:17:55.902Z,8.39
2022-10-10T06:18:55.914Z,8.37
2022-10-10T06:19:55.956Z,8.42
2022-10-10T06:20:55.848Z,8.44
2022-10-10T06:21:55.859Z,8.47
2022-10-10T06:22:55.834Z,8.45
2022-10-10T06:23:55.840Z,8.48
2022-10-10T06:24:55.829Z,8.53
2022-10-10T06:25:55.788Z,8.57
2022-10-10T06:26:55.778Z,8.63
2022-10-10T06:27:55.766Z,8.69
2022-10-10T06:28:55.759Z,8.68
2022-10-10T06:29:55.747Z,8.65
2022-10-10T06:30:55.718Z,8.65
2022-10-10T06:31:55.727Z,8.62
2022-10-10T06:32:57.058Z,8.57
2022-10-10T06:33:55.706Z,8.57
2022-10-10T06:34:55.690Z,8.55
2022-10-10T06:35:55.669Z,8.57
2022-10-10T06:36:55.649Z,8.58
2022-10-10T06:37:55.649Z,8.62
2022-10-10T06:38:55.642Z,8.66
2022-10-10T06:39:55.623Z,8.66
2022-10-10T06:40:59.704Z,8.65
2022-10-10T06:41:55.590Z,8.63
2022-10-10T06:42:55.581Z,8.62
2022-10-10T06:43:55.597Z,8.62
2022-10-10T06:44:55.546Z,8.62
2022-10-10T06:45:55.573Z,8.66
2022-10-10T06:46:55.522Z,8.69
2022-10-10T06:47:55.512Z,8.71
2022-10-10T06:48:55.511Z,8.73
2022-10-10T06:49:55.492Z,8.79
2022-10-10T06:50:55.468Z,8.84
2022-10-10T06:51:55.462Z,8.86
2022-10-10T06:52:56.448Z,8.83
2022-10-10T06:53:55.451Z,8.84
2022-10-10T06:54:55.421Z,8.91
2022-10-10T06:55:55.405Z,8.91
2022-10-10T06:56:55.392Z,8.90
2022-10-10T06:57:55.384Z,8.90
2022-10-10T06:58:55.372Z,8.90
2022-10-10T06:59:55.375Z,8.93
2022-10-10T07:00:55.331Z,8.99
2022-10-10T07:01:55.381Z,9.02
2022-10-10T07:02:55.302Z,9.05
2022-10-10T07:03:55.294Z,9.10
2022-10-10T07:04:55.292Z,9.15
2022-10-10T07:05:55.281Z,9.23
2022-10-10T07:06:55.252Z,9.23
2022-10-10T07:07:55.246Z,9.27
2022-10-10T07:08:55.252Z,9.30
2022-10-10T07:09:55.232Z,9.34
2022-10-10T07:10:55.194Z,9.38
2022-10-10T07:11:55.193Z,9.40
2022-10-10T07:12:55.275Z,9.43
2022-10-10T07:13:55.165Z,9.50
2022-10-10T07:14:55.145Z,9.53
2022-10-10T07:15:55.176Z,9.64
2022-10-10T07:16:55.113Z,9.75
2022-10-10T07:17:55.122Z,9.82
2022-10-10T07:18:55.094Z,9.86
2022-10-10T07:19:55.141Z,9.91
2022-10-10T07:20:55.065Z,9.94
2022-10-10T07:21:55.111Z,9.96
2022-10-10T07:22:55.078Z,9.99
2022-10-10T07:23:55.088Z,10.01
2022-10-10T07:24:55.014Z,10.03
2022-10-10T07:25:55.004Z,10.06
2022-10-10T07:27:02.347Z,10.09
2022-10-10T07:27:55.986Z,10.14
2022-10-10T07:28:55.977Z,10.18
2022-10-10T07:29:55.054Z,10.22
2022-10-10T07:30:54.956Z,10.30
2022-10-10T07:31:54.917Z,10.32
2022-10-10T07:32:54.937Z,10.33
2022-10-10T07:33:54.905Z,10.34
2022-10-10T07:34:54.897Z,10.37
2022-10-10T07:35:54.881Z,10.43
2022-10-10T07:36:54.846Z,10.46
2022-10-10T07:37:54.848Z,10.47
2022-10-10T07:38:54.862Z,10.51
2022-10-10T07:39:54.880Z,10.56
2022-10-10T07:40:54.826Z,10.62
2022-10-10T07:41:54.797Z,10.68
2022-10-10T07:42:54.781Z,10.78
2022-10-10T07:43:54.788Z,10.88
2022-10-10T07:44:54.766Z,10.92
2022-10-10T07:45:54.821Z,10.98
2022-10-10T07:46:54.718Z,11.06
2022-10-10T07:47:54.756Z,11.13
2022-10-10T07:48:54.741Z,11.24
2022-10-10T07:49:54.700Z,11.28
2022-10-10T07:50:54.680Z,11.29
2022-10-10T07:51:58.609Z,11.32
2022-10-10T07:52:55.662Z,11.36
2022-10-10T07:53:54.640Z,11.39
2022-10-10T07:54:54.644Z,11.39
2022-10-10T07:55:54.599Z,11.39
2022-10-10T07:56:54.601Z,11.44
2022-10-10T07:57:54.961Z,11.44
2022-10-10T07:58:54.584Z,11.46
2022-10-10T07:59:54.599Z,11.49
2022-10-10T08:00:54.532Z,11.50
2022-10-10T08:01:54.619Z,11.50
2022-10-10T08:02:54.523Z,11.53
2022-10-10T08:03:54.523Z,11.52
2022-10-10T08:04:54.501Z,11.54
2022-10-10T08:05:54.472Z,11.56
2022-10-10T08:06:54.462Z,11.56
2022-10-10T08:07:54.781Z,11.61
2022-10-10T08:08:54.453Z,11.59
2022-10-10T08:09:54.431Z,11.61
2022-10-10T08:10:54.412Z,11.59
2022-10-10T08:11:54.413Z,11.61
2022-10-10T08:12:54.383Z,11.67
2022-10-10T08:13:54.374Z,11.74
2022-10-10T08:14:54.373Z,11.80
2022-10-10T08:15:54.342Z,11.78
2022-10-10T08:16:54.333Z,11.83
2022-10-10T08:17:54.493Z,11.86
2022-10-10T08:18:54.313Z,11.89
2022-10-10T08:19:54.303Z,11.93
2022-10-10T08:20:54.275Z,11.96
2022-10-10T08:21:54.272Z,11.93
2022-10-10T08:22:54.464Z,11.93
2022-10-10T08:23:54.255Z,11.89
2022-10-10T08:24:54.236Z,11.93
2022-10-10T08:25:54.219Z,11.96
2022-10-10T08:26:54.206Z,12.01
2022-10-10T08:27:54.208Z,12.06
2022-10-10T08:28:54.176Z,12.13
2022-10-10T08:29:54.165Z,12.15
2022-10-10T08:30:54.143Z,12.13
2022-10-10T08:31:54.156Z,12.16
2022-10-10T08:32:54.418Z,12.19
2022-10-10T08:33:54.115Z,12.23
2022-10-10T08:34:54.098Z,12.24
2022-10-10T08:35:54.085Z,12.27
2022-10-10T08:36:54.065Z,12.33
2022-10-10T08:37:54.078Z,12.41
2022-10-10T08:38:54.045Z,12.56
2022-10-10T08:39:54.047Z,12.70
2022-10-10T08:40:54.014Z,12.81
2022-10-10T08:41:53.997Z,12.89
2022-10-10T08:42:54.369Z,12.97
2022-10-10T08:43:53.977Z,13.04
2022-10-10T08:44:54.007Z,13.14
2022-10-10T08:45:53.962Z,13.22
2022-10-10T08:46:53.940Z,13.33
2022-10-10T08:47:53.938Z,13.46
2022-10-10T08:48:53.927Z,13.59
2022-10-10T08:49:53.907Z,13.74
2022-10-10T08:50:53.886Z,13.92
2022-10-10T08:51:53.881Z,14.14
2022-10-10T08:52:54.222Z,14.34
2022-10-10T08:53:53.849Z,14.53
2022-10-10T08:54:58.267Z,14.69
2022-10-10T08:55:53.832Z,14.88
2022-10-10T08:56:53.820Z,15.08
2022-10-10T08:57:53.924Z,15.39
2022-10-10T08:58:53.779Z,15.92
2022-10-10T09:00:53.786Z,17.64
2022-10-10T09:02:18.508Z,18.54
2022-10-10T09:02:55.207Z,19.24
2022-10-10T09:03:53.736Z,19.91
2022-10-10T09:04:53.723Z,20.58
2022-10-10T09:05:53.690Z,21.06
2022-10-10T09:06:53.680Z,21.14
2022-10-10T09:07:53.686Z,20.99
2022-10-10T09:08:53.670Z,21.05
2022-10-10T09:09:53.662Z,21.08
2022-10-10T09:10:53.764Z,21.09
2022-10-10T09:11:53.611Z,21.01
2022-10-10T09:12:53.592Z,20.69
2022-10-10T09:13:53.593Z,20.31
2022-10-10T09:14:53.582Z,20.18
2022-10-10T09:15:53.565Z,19.98
2022-10-10T09:16:53.553Z,19.76
2022-10-10T09:17:53.543Z,19.57
2022-10-10T09:18:53.525Z,19.51
2022-10-10T09:19:53.514Z,19.39
2022-10-10T09:20:53.494Z,19.29
2022-10-10T09:21:53.484Z,19.13
2022-10-10T09:22:53.465Z,18.72
2022-10-10T09:23:53.461Z,18.68
2022-10-10T09:24:53.454Z,18.84
2022-10-10T09:25:53.416Z,18.74
2022-10-10T09:26:53.416Z,18.54
2022-10-10T09:27:53.414Z,18.39
2022-10-10T09:28:53.451Z,18.24
2022-10-10T09:29:53.375Z,18.12
2022-10-10T09:30:53.366Z,17.95
2022-10-10T09:31:53.347Z,17.79
2022-10-10T09:32:53.345Z,17.51
2022-10-10T09:33:53.326Z,17.36
2022-10-10T09:34:53.350Z,17.07
2022-10-10T09:35:53.287Z,16.80
2022-10-10T09:36:57.216Z,16.70
2022-10-10T09:37:54.289Z,16.60
2022-10-10T09:38:53.258Z,16.59
2022-10-10T09:39:53.247Z,16.56
2022-10-10T09:40:53.246Z,16.53
2022-10-10T09:41:53.210Z,16.50
2022-10-10T09:42:53.200Z,16.59
2022-10-10T09:43:53.191Z,16.77
2022-10-10T09:44:53.198Z,17.08
2022-10-10T09:45:53.166Z,17.08
2022-10-10T09:46:53.148Z,17.04
2022-10-10T10:03:21.395Z,17.35
2022-10-10T10:04:29.364Z,17.26
2022-10-10T10:05:22.375Z,17.25
2022-10-10T10:06:21.353Z,17.17
2022-10-10T10:07:21.336Z,17.13
2022-10-10T10:08:21.325Z,17.10
2022-10-10T10:09:21.316Z,17.10
2022-10-10T10:10:21.324Z,17.08
2022-10-10T10:11:21.287Z,17.11
2022-10-10T10:12:21.277Z,17.11
2022-10-10T10:13:21.266Z,17.13
2022-10-10T10:14:21.257Z,17.17
2022-10-10T10:15:21.245Z,17.29
2022-10-10T10:16:21.229Z,17.32
2022-10-10T10:17:21.210Z,17.11
2022-10-10T10:18:21.209Z,17.11
2022-10-10T10:19:21.179Z,17.53
2022-10-10T10:20:21.178Z,17.81
2022-10-10T10:21:21.163Z,18.00
2022-10-10T10:22:24.391Z,18.24
2022-10-10T10:23:22.128Z,18.62
2022-10-10T10:24:21.146Z,18.99
2022-10-10T10:25:21.099Z,19.24
2022-10-10T10:26:21.103Z,19.36
2022-10-10T10:27:21.079Z,19.75
2022-10-10T10:28:21.154Z,20.41
2022-10-10T10:29:21.050Z,21.06
2022-10-10T10:30:21.047Z,22.31
2022-10-10T10:31:21.028Z,23.52
2022-10-10T10:32:21.022Z,24.39
2022-10-10T10:33:20.991Z,25.37
2022-10-10T10:34:21.002Z,25.67
2022-10-10T10:35:20.990Z,25.01
2022-10-10T10:36:21.039Z,24.56
2022-10-10T10:37:20.952Z,24.16
2022-10-10T10:38:20.933Z,23.46
2022-10-10T10:39:20.932Z,22.86
2022-10-10T10:40:20.922Z,22.53
2022-10-10T10:41:20.894Z,22.39
2022-10-10T10:42:20.882Z,21.99
2022-10-10T10:43:20.872Z,21.59
2022-10-10T10:44:20.873Z,21.59
2022-10-10T10:45:20.855Z,23.12
2022-10-10T10:46:20.832Z,24.54
2022-10-10T10:47:20.816Z,25.91
2022-10-10T10:48:20.805Z,26.94
2022-10-10T10:49:23.203Z,27.69
2022-10-10T10:50:20.805Z,28.19
2022-10-10T10:51:20.776Z,28.50
2022-10-10T10:52:20.769Z,28.73
2022-10-10T10:53:20.747Z,28.72
2022-10-10T10:54:20.747Z,28.96
2022-10-10T10:55:20.729Z,28.56
2022-10-10T10:56:20.768Z,28.43
2022-10-10T10:57:32.891Z,28.59
2022-10-10T10:59:05.040Z,28.32
2022-10-10T10:59:41.826Z,28.09
2022-10-10T11:01:17.325Z,28.62
2022-10-10T11:01:45.069Z,28.75
2022-10-10T11:02:36.992Z,29.01
2022-10-10T11:05:16.363Z,29.65
2022-10-10T11:05:21.945Z,30.12
2022-10-10T11:05:29.511Z,28.88
2022-10-10T11:06:21.694Z,27.70
2022-10-10T11:07:21.187Z,26.37
2022-10-10T11:08:20.551Z,25.59
2022-10-10T11:09:48.312Z,24.91
2022-10-10T11:10:21.522Z,24.59
2022-10-10T11:11:20.511Z,24.00
2022-10-10T11:12:20.503Z,23.38
2022-10-10T11:13:20.494Z,22.78
2022-10-10T11:14:20.473Z,22.20
2022-10-10T11:15:20.482Z,21.83
2022-10-10T11:16:36.644Z,21.61
2022-10-10T11:17:21.455Z,21.71
2022-10-10T11:18:20.436Z,21.51
2022-10-10T11:19:20.428Z,21.53
2022-10-10T11:20:20.425Z,22.20
2022-10-10T11:21:20.395Z,23.27
2022-10-10T11:22:20.375Z,23.71
2022-10-10T11:23:20.364Z,23.83
2022-10-10T11:24:20.357Z,23.67
2022-10-10T11:25:20.370Z,24.14
2022-10-10T11:26:20.327Z,25.69
2022-10-10T11:27:20.318Z,26.44
2022-10-10T11:28:20.379Z,26.37
2022-10-10T11:29:20.307Z,26.04
2022-10-10T11:30:21.288Z,26.54
2022-10-10T11:31:20.272Z,26.28
2022-10-10T11:33:20.253Z,26.05
2022-10-10T11:34:20.229Z,25.32
2022-10-10T11:35:20.219Z,24.71
2022-10-10T11:36:20.190Z,24.29
2022-10-10T11:37:20.199Z,24.22
2022-10-10T11:38:20.174Z,24.75
2022-10-10T11:39:20.165Z,25.37
2022-10-10T11:40:20.170Z,25.52
2022-10-10T11:41:20.151Z,25.31
2022-10-10T11:42:20.131Z,24.64
2022-10-10T11:43:20.101Z,24.22
2022-10-10T11:44:20.113Z,24.53
2022-10-10T11:45:20.109Z,24.24
2022-10-10T11:46:20.069Z,24.50
2022-10-10T11:47:20.062Z,24.54
2022-10-10T11:48:20.049Z,24.32
2022-10-10T11:49:20.044Z,24.98
2022-10-10T11:50:20.072Z,25.22
2022-10-10T11:51:20.016Z,24.82
2022-10-10T11:52:35.382Z,24.31
2022-10-10T11:53:20.989Z,23.75
2022-10-10T11:54:19.975Z,23.19
2022-10-10T11:55:19.988Z,22.38
2022-10-10T11:56:19.935Z,22.41
2022-10-10T11:57:19.946Z,22.22
2022-10-10T11:58:19.919Z,22.39
2022-10-10T11:59:19.909Z,23.49
2022-10-10T12:00:19.918Z,23.55
2022-10-10T12:01:19.927Z,23.47
2022-10-10T12:02:20.743Z,23.26
2022-10-10T12:03:19.875Z,22.99
2022-10-10T12:04:19.857Z,22.83
2022-10-10T12:05:19.849Z,22.77
2022-10-10T12:06:19.816Z,22.80
2022-10-10T12:07:19.820Z,22.83
2022-10-10T12:08:19.798Z,22.97
2022-10-10T12:09:19.783Z,22.90
2022-10-10T12:10:19.779Z,22.77
2022-10-10T12:11:19.764Z,22.77
2022-10-10T12:12:19.742Z,22.74
2022-10-10T12:13:19.778Z,22.65
2022-10-10T12:14:19.723Z,22.47
2022-10-10T12:15:19.713Z,22.43
2022-10-10T12:16:19.693Z,22.02
2022-10-10T12:17:19.692Z,21.76
2022-10-10T12:18:19.673Z,21.74
2022-10-10T12:19:19.670Z,21.53
2022-10-10T12:20:19.661Z,21.34
2022-10-10T12:21:19.644Z,21.34
2022-10-10T12:22:19.653Z,21.46
2022-10-10T12:23:19.625Z,21.20
2022-10-10T12:24:19.596Z,21.09
2022-10-10T12:25:19.597Z,21.08
2022-10-10T12:26:19.555Z,21.08
2022-10-10T12:27:19.566Z,21.01
2022-10-10T12:28:19.604Z,20.77
2022-10-10T12:29:19.552Z,20.66
2022-10-10T12:30:19.528Z,20.34
2022-10-10T12:31:19.506Z,20.39
2022-10-10T12:32:19.486Z,20.84
2022-10-10T12:33:19.483Z,21.17
2022-10-10T12:34:19.467Z,21.60
2022-10-10T12:35:19.459Z,22.01
2022-10-10T12:36:19.438Z,22.31
2022-10-10T12:37:19.428Z,22.62
2022-10-10T12:38:19.420Z,23.34
2022-10-10T12:39:19.409Z,24.32
2022-10-10T12:40:19.403Z,24.57
2022-10-10T12:41:19.379Z,25.46
2022-10-10T12:42:19.371Z,25.54
2022-10-10T12:43:19.361Z,25.94
2022-10-10T12:44:19.341Z,26.25
2022-10-10T12:45:19.343Z,26.58
2022-10-10T12:46:19.310Z,26.54
2022-10-10T12:47:19.321Z,25.97
2022-10-10T12:48:19.289Z,25.42
2022-10-10T12:49:19.285Z,25.54
2022-10-10T12:50:19.278Z,25.35
2022-10-10T12:51:19.242Z,25.34
2022-10-10T12:52:19.243Z,25.19
2022-10-10T12:53:19.233Z,24.90
2022-10-10T12:54:19.217Z,24.63
2022-10-10T12:55:19.215Z,24.69
2022-10-10T12:56:19.184Z,24.59
2022-10-10T12:57:19.175Z,24.31
2022-10-10T12:58:26.632Z,24.13
2022-10-10T12:59:20.160Z,23.71
2022-10-10T13:00:19.153Z,23.27
2022-10-10T13:01:19.168Z,23.01
2022-10-10T13:02:19.108Z,22.71
2022-10-10T13:03:19.117Z,22.37
2022-10-10T13:04:19.098Z,22.01
2022-10-10T13:05:19.087Z,21.60
2022-10-10T13:06:19.074Z,21.23
2022-10-10T13:07:19.065Z,20.90
2022-10-10T13:08:19.028Z,20.71
2022-10-10T13:09:19.037Z,20.54
2022-10-10T13:10:19.030Z,20.33
2022-10-10T13:11:19.000Z,20.13
2022-10-10T13:12:18.997Z,20.13
2022-10-10T13:13:18.979Z,20.16
2022-10-10T13:14:18.971Z,20.20
2022-10-10T13:15:18.980Z,20.27
2022-10-10T13:16:18.954Z,20.33
2022-10-10T13:17:18.941Z,20.35
2022-10-10T13:18:18.919Z,20.35
2022-10-10T13:19:18.922Z,20.38
2022-10-10T13:20:18.896Z,20.33
2022-10-10T13:21:18.872Z,20.23
2022-10-10T13:22:18.872Z,20.12
2022-10-10T13:23:18.854Z,20.03
2022-10-10T13:24:18.844Z,19.95
2022-10-10T13:25:18.824Z,19.87
2022-10-10T13:26:18.815Z,19.76
2022-10-10T13:27:18.810Z,19.68
2022-10-10T13:28:18.849Z,19.53
2022-10-10T13:29:18.795Z,19.40
2022-10-10T13:30:18.765Z,19.35
2022-10-10T13:31:18.745Z,19.36
2022-10-10T13:32:18.766Z,19.33
2022-10-10T13:33:18.725Z,19.33
2022-10-10T13:34:21.252Z,19.38
2022-10-10T13:35:18.742Z,19.40
2022-10-10T13:36:18.685Z,19.43